sensor_id;sensor_type;location;lat;lon;timestamp;P1;durP1;ratioP1;P2;durP2;ratioP2
5060;SDS011;2549;52.128;21.068;2022-12-18T00:01:16;22.15;;;10.48;;
5060;SDS011;2549;52.128;21.068;2022-12-18T00:03:48;17.67;;;9.75;;
5060;SDS011;2549;52.128;21.068;2022-12-18T00:06:16;23.58;;;11.10;;
5060;SDS011;2549;52.128;21.068;2022-12-18T00:08:44;18.67;;;10.70;;
5060;SDS011;2549;52.128;21.068;2022-12-18T00:11:12;23.23;;;10.25;;
5060;SDS011;2549;52.128;21.068;2022-12-18T00:13:43;17.83;;;10.30;;
5060;SDS011;2549;52.128;21.068;2022-12-18T00:16:11;27.10;;;10.10;;
5060;SDS011;2549;52.128;21.068;2022-12-18T00:18:40;17.63;;;9.82;;
5060;SDS011;2549;52.128;21.068;2022-12-18T00:21:09;19.95;;;9.43;;
5060;SDS011;2549;52.128;21.068;2022-12-18T00:23:37;22.85;;;10.30;;
5060;SDS011;2549;52.128;21.068;2022-12-18T00:26:06;21.30;;;9.93;;
5060;SDS011;2549;52.128;21.068;2022-12-18T00:28:36;18.05;;;9.60;;
5060;SDS011;2549;52.128;21.068;2022-12-18T00:31:04;19.80;;;11.20;;
5060;SDS011;2549;52.128;21.068;2022-12-18T00:33:35;24.85;;;8.60;;
5060;SDS011;2549;52.128;21.068;2022-12-18T00:36:11;22.20;;;9.02;;
5060;SDS011;2549;52.128;21.068;2022-12-18T00:38:43;17.80;;;8.80;;
5060;SDS011;2549;52.128;21.068;2022-12-18T00:41:12;11.75;;;7.20;;
5060;SDS011;2549;52.128;21.068;2022-12-18T00:44:01;18.60;;;9.02;;
5060;SDS011;2549;52.128;21.068;2022-12-18T00:46:29;18.83;;;8.27;;
5060;SDS011;2549;52.128;21.068;2022-12-18T00:48:56;17.33;;;8.85;;
5060;SDS011;2549;52.128;21.068;2022-12-18T00:51:24;18.25;;;8.30;;
5060;SDS011;2549;52.128;21.068;2022-12-18T00:53:51;19.15;;;10.45;;
5060;SDS011;2549;52.128;21.068;2022-12-18T00:56:18;17.30;;;9.52;;
5060;SDS011;2549;52.128;21.068;2022-12-18T00:58:45;19.15;;;10.07;;
5060;SDS011;2549;52.128;21.068;2022-12-18T01:01:12;18.88;;;9.43;;
5060;SDS011;2549;52.128;21.068;2022-12-18T01:03:39;20.73;;;10.40;;
5060;SDS011;2549;52.128;21.068;2022-12-18T01:06:07;17.00;;;8.93;;
5060;SDS011;2549;52.128;21.068;2022-12-18T01:08:35;19.10;;;9.95;;
5060;SDS011;2549;52.128;21.068;2022-12-18T01:11:16;14.55;;;8.50;;
5060;SDS011;2549;52.128;21.068;2022-12-18T01:13:44;19.42;;;9.02;;
5060;SDS011;2549;52.128;21.068;2022-12-18T01:16:12;20.75;;;10.27;;
5060;SDS011;2549;52.128;21.068;2022-12-18T01:18:40;20.13;;;9.10;;
5060;SDS011;2549;52.128;21.068;2022-12-18T01:21:12;14.10;;;8.73;;
5060;SDS011;2549;52.128;21.068;2022-12-18T01:23:41;23.20;;;9.75;;
5060;SDS011;2549;52.128;21.068;2022-12-18T01:26:09;19.50;;;8.45;;
5060;SDS011;2549;52.128;21.068;2022-12-18T01:28:38;23.48;;;9.10;;
5060;SDS011;2549;52.128;21.068;2022-12-18T01:31:22;16.65;;;9.80;;
5060;SDS011;2549;52.128;21.068;2022-12-18T01:33:51;17.75;;;9.00;;
5060;SDS011;2549;52.128;21.068;2022-12-18T01:36:23;23.45;;;9.32;;
5060;SDS011;2549;52.128;21.068;2022-12-18T01:38:50;19.88;;;9.85;;
5060;SDS011;2549;52.128;21.068;2022-12-18T01:41:20;21.92;;;10.80;;
5060;SDS011;2549;52.128;21.068;2022-12-18T01:46:17;17.73;;;9.57;;
5060;SDS011;2549;52.128;21.068;2022-12-18T01:48:45;14.90;;;7.32;;
5060;SDS011;2549;52.128;21.068;2022-12-18T01:51:15;20.80;;;9.23;;
5060;SDS011;2549;52.128;21.068;2022-12-18T01:53:42;15.07;;;7.80;;
5060;SDS011;2549;52.128;21.068;2022-12-18T01:56:14;16.73;;;8.65;;
5060;SDS011;2549;52.128;21.068;2022-12-18T01:58:58;21.85;;;9.10;;
5060;SDS011;2549;52.128;21.068;2022-12-18T02:01:29;14.57;;;8.63;;
5060;SDS011;2549;52.128;21.068;2022-12-18T02:04:13;22.73;;;8.93;;
5060;SDS011;2549;52.128;21.068;2022-12-18T02:07:01;22.52;;;8.70;;
5060;SDS011;2549;52.128;21.068;2022-12-18T02:09:45;29.75;;;9.35;;
5060;SDS011;2549;52.128;21.068;2022-12-18T02:12:18;22.77;;;9.48;;
5060;SDS011;2549;52.128;21.068;2022-12-18T02:17:18;17.08;;;7.85;;
5060;SDS011;2549;52.128;21.068;2022-12-18T02:22:46;21.85;;;9.90;;
5060;SDS011;2549;52.128;21.068;2022-12-18T02:28:40;20.05;;;9.27;;
5060;SDS011;2549;52.128;21.068;2022-12-18T02:31:13;18.42;;;8.70;;
5060;SDS011;2549;52.128;21.068;2022-12-18T02:33:43;22.77;;;10.18;;
5060;SDS011;2549;52.128;21.068;2022-12-18T02:36:12;22.23;;;7.85;;
5060;SDS011;2549;52.128;21.068;2022-12-18T02:38:41;18.95;;;8.63;;
5060;SDS011;2549;52.128;21.068;2022-12-18T02:41:10;22.23;;;9.45;;
5060;SDS011;2549;52.128;21.068;2022-12-18T02:43:39;19.25;;;9.00;;
5060;SDS011;2549;52.128;21.068;2022-12-18T03:00:51;19.75;;;8.88;;
5060;SDS011;2549;52.128;21.068;2022-12-18T03:05:58;25.50;;;9.70;;
5060;SDS011;2549;52.128;21.068;2022-12-18T03:08:58;17.50;;;8.60;;
5060;SDS011;2549;52.128;21.068;2022-12-18T03:11:29;23.45;;;8.85;;
5060;SDS011;2549;52.128;21.068;2022-12-18T03:14:17;18.70;;;7.93;;
5060;SDS011;2549;52.128;21.068;2022-12-18T03:16:49;20.27;;;9.48;;
5060;SDS011;2549;52.128;21.068;2022-12-18T03:19:19;25.55;;;10.18;;
5060;SDS011;2549;52.128;21.068;2022-12-18T03:21:52;20.52;;;9.23;;
5060;SDS011;2549;52.128;21.068;2022-12-18T03:24:22;32.08;;;9.68;;
5060;SDS011;2549;52.128;21.068;2022-12-18T03:26:51;25.52;;;10.27;;
5060;SDS011;2549;52.128;21.068;2022-12-18T03:29:25;21.75;;;9.82;;
5060;SDS011;2549;52.128;21.068;2022-12-18T03:31:59;20.40;;;10.25;;
5060;SDS011;2549;52.128;21.068;2022-12-18T03:34:33;21.67;;;9.90;;
5060;SDS011;2549;52.128;21.068;2022-12-18T03:37:02;20.70;;;9.43;;
5060;SDS011;2549;52.128;21.068;2022-12-18T03:39:31;23.67;;;9.20;;
5060;SDS011;2549;52.128;21.068;2022-12-18T03:42:05;23.27;;;9.05;;
5060;SDS011;2549;52.128;21.068;2022-12-18T03:44:44;22.42;;;10.23;;
5060;SDS011;2549;52.128;21.068;2022-12-18T03:52:58;20.33;;;9.20;;
5060;SDS011;2549;52.128;21.068;2022-12-18T03:55:32;24.77;;;9.90;;
5060;SDS011;2549;52.128;21.068;2022-12-18T03:58:01;17.02;;;8.70;;
5060;SDS011;2549;52.128;21.068;2022-12-18T04:00:32;24.45;;;8.43;;
5060;SDS011;2549;52.128;21.068;2022-12-18T04:03:00;19.58;;;8.32;;
5060;SDS011;2549;52.128;21.068;2022-12-18T04:05:28;20.25;;;8.93;;
5060;SDS011;2549;52.128;21.068;2022-12-18T04:07:59;25.33;;;10.18;;
5060;SDS011;2549;52.128;21.068;2022-12-18T04:10:26;27.25;;;10.20;;
5060;SDS011;2549;52.128;21.068;2022-12-18T04:12:55;23.08;;;9.18;;
5060;SDS011;2549;52.128;21.068;2022-12-18T04:15:23;23.00;;;10.15;;
5060;SDS011;2549;52.128;21.068;2022-12-18T04:17:50;25.30;;;9.60;;
5060;SDS011;2549;52.128;21.068;2022-12-18T04:20:17;23.70;;;9.38;;
5060;SDS011;2549;52.128;21.068;2022-12-18T04:22:44;12.95;;;6.80;;
5060;SDS011;2549;52.128;21.068;2022-12-18T04:25:11;15.32;;;7.85;;
5060;SDS011;2549;52.128;21.068;2022-12-18T04:27:38;21.42;;;9.45;;
5060;SDS011;2549;52.128;21.068;2022-12-18T04:30:05;26.58;;;9.63;;
5060;SDS011;2549;52.128;21.068;2022-12-18T04:32:33;17.48;;;9.52;;
5060;SDS011;2549;52.128;21.068;2022-12-18T04:35:00;22.52;;;9.10;;
5060;SDS011;2549;52.128;21.068;2022-12-18T04:37:27;22.50;;;9.13;;
5060;SDS011;2549;52.128;21.068;2022-12-18T04:39:54;22.73;;;10.38;;
5060;SDS011;2549;52.128;21.068;2022-12-18T04:42:21;24.58;;;10.45;;
5060;SDS011;2549;52.128;21.068;2022-12-18T04:44:48;21.08;;;9.35;;
5060;SDS011;2549;52.128;21.068;2022-12-18T04:47:15;21.50;;;9.93;;
5060;SDS011;2549;52.128;21.068;2022-12-18T04:49:41;19.42;;;9.45;;
5060;SDS011;2549;52.128;21.068;2022-12-18T04:52:08;23.02;;;9.60;;
5060;SDS011;2549;52.128;21.068;2022-12-18T04:54:35;18.73;;;8.95;;
5060;SDS011;2549;52.128;21.068;2022-12-18T04:57:02;15.98;;;7.50;;
5060;SDS011;2549;52.128;21.068;2022-12-18T04:59:29;21.38;;;9.48;;
5060;SDS011;2549;52.128;21.068;2022-12-18T05:01:56;22.25;;;9.00;;
5060;SDS011;2549;52.128;21.068;2022-12-18T05:04:23;31.38;;;10.02;;
5060;SDS011;2549;52.128;21.068;2022-12-18T05:06:50;13.73;;;7.25;;
5060;SDS011;2549;52.128;21.068;2022-12-18T05:09:17;25.15;;;9.75;;
5060;SDS011;2549;52.128;21.068;2022-12-18T05:11:44;21.30;;;7.78;;
5060;SDS011;2549;52.128;21.068;2022-12-18T05:14:12;23.15;;;9.98;;
5060;SDS011;2549;52.128;21.068;2022-12-18T05:16:39;23.42;;;9.05;;
5060;SDS011;2549;52.128;21.068;2022-12-18T05:19:06;26.30;;;11.05;;
5060;SDS011;2549;52.128;21.068;2022-12-18T05:21:33;21.42;;;9.15;;
5060;SDS011;2549;52.128;21.068;2022-12-18T05:24:00;24.48;;;12.07;;
5060;SDS011;2549;52.128;21.068;2022-12-18T05:26:27;26.27;;;10.73;;
5060;SDS011;2549;52.128;21.068;2022-12-18T05:28:54;25.35;;;9.65;;
5060;SDS011;2549;52.128;21.068;2022-12-18T05:31:20;27.17;;;12.00;;
5060;SDS011;2549;52.128;21.068;2022-12-18T05:33:47;31.05;;;11.05;;
5060;SDS011;2549;52.128;21.068;2022-12-18T05:36:14;28.15;;;11.13;;
5060;SDS011;2549;52.128;21.068;2022-12-18T05:38:41;24.08;;;9.90;;
5060;SDS011;2549;52.128;21.068;2022-12-18T05:41:08;25.08;;;9.80;;
5060;SDS011;2549;52.128;21.068;2022-12-18T05:43:36;23.95;;;9.32;;
5060;SDS011;2549;52.128;21.068;2022-12-18T05:46:05;26.23;;;11.07;;
5060;SDS011;2549;52.128;21.068;2022-12-18T05:48:34;25.67;;;10.10;;
5060;SDS011;2549;52.128;21.068;2022-12-18T05:51:08;24.52;;;9.98;;
5060;SDS011;2549;52.128;21.068;2022-12-18T05:53:37;31.50;;;11.75;;
5060;SDS011;2549;52.128;21.068;2022-12-18T05:56:05;20.15;;;9.80;;
5060;SDS011;2549;52.128;21.068;2022-12-18T05:58:35;24.58;;;10.43;;
5060;SDS011;2549;52.128;21.068;2022-12-18T06:03:39;20.67;;;9.45;;
5060;SDS011;2549;52.128;21.068;2022-12-18T06:06:16;29.63;;;11.55;;
5060;SDS011;2549;52.128;21.068;2022-12-18T06:08:46;24.77;;;10.15;;
5060;SDS011;2549;52.128;21.068;2022-12-18T06:11:15;25.48;;;10.60;;
5060;SDS011;2549;52.128;21.068;2022-12-18T06:13:45;23.45;;;9.00;;
5060;SDS011;2549;52.128;21.068;2022-12-18T06:16:12;27.27;;;11.15;;
5060;SDS011;2549;52.128;21.068;2022-12-18T06:18:39;32.42;;;10.18;;
5060;SDS011;2549;52.128;21.068;2022-12-18T06:21:06;33.33;;;10.75;;
5060;SDS011;2549;52.128;21.068;2022-12-18T06:23:33;23.05;;;10.68;;
5060;SDS011;2549;52.128;21.068;2022-12-18T06:26:07;24.45;;;10.82;;
5060;SDS011;2549;52.128;21.068;2022-12-18T06:28:35;31.55;;;11.95;;
5060;SDS011;2549;52.128;21.068;2022-12-18T06:31:02;21.58;;;10.32;;
5060;SDS011;2549;52.128;21.068;2022-12-18T06:33:30;29.65;;;12.10;;
5060;SDS011;2549;52.128;21.068;2022-12-18T06:36:01;22.48;;;9.57;;
5060;SDS011;2549;52.128;21.068;2022-12-18T06:38:34;23.17;;;10.45;;
5060;SDS011;2549;52.128;21.068;2022-12-18T06:41:06;25.60;;;11.27;;
5060;SDS011;2549;52.128;21.068;2022-12-18T06:43:37;26.17;;;12.00;;
5060;SDS011;2549;52.128;21.068;2022-12-18T06:46:05;33.35;;;12.23;;
5060;SDS011;2549;52.128;21.068;2022-12-18T06:48:33;28.55;;;10.93;;
5060;SDS011;2549;52.128;21.068;2022-12-18T06:51:00;23.85;;;9.82;;
5060;SDS011;2549;52.128;21.068;2022-12-18T06:53:27;26.55;;;10.88;;
5060;SDS011;2549;52.128;21.068;2022-12-18T06:56:03;28.48;;;11.95;;
5060;SDS011;2549;52.128;21.068;2022-12-18T06:58:35;26.90;;;11.70;;
5060;SDS011;2549;52.128;21.068;2022-12-18T07:01:03;27.48;;;11.13;;
5060;SDS011;2549;52.128;21.068;2022-12-18T07:03:32;23.58;;;10.63;;
5060;SDS011;2549;52.128;21.068;2022-12-18T07:05:59;36.65;;;10.80;;
5060;SDS011;2549;52.128;21.068;2022-12-18T07:08:26;32.85;;;12.48;;
5060;SDS011;2549;52.128;21.068;2022-12-18T07:10:52;27.27;;;11.30;;
5060;SDS011;2549;52.128;21.068;2022-12-18T07:13:21;31.50;;;11.63;;
5060;SDS011;2549;52.128;21.068;2022-12-18T07:15:48;32.78;;;12.40;;
5060;SDS011;2549;52.128;21.068;2022-12-18T07:18:15;25.10;;;9.95;;
5060;SDS011;2549;52.128;21.068;2022-12-18T07:20:42;31.08;;;12.23;;
5060;SDS011;2549;52.128;21.068;2022-12-18T07:23:11;30.55;;;12.10;;
5060;SDS011;2549;52.128;21.068;2022-12-18T07:25:38;30.50;;;11.25;;
5060;SDS011;2549;52.128;21.068;2022-12-18T07:28:05;28.20;;;11.07;;
5060;SDS011;2549;52.128;21.068;2022-12-18T07:30:37;38.55;;;11.90;;
5060;SDS011;2549;52.128;21.068;2022-12-18T07:33:04;31.25;;;11.65;;
5060;SDS011;2549;52.128;21.068;2022-12-18T07:35:32;27.25;;;10.80;;
5060;SDS011;2549;52.128;21.068;2022-12-18T07:38:00;35.15;;;11.05;;
5060;SDS011;2549;52.128;21.068;2022-12-18T07:40:26;27.30;;;11.18;;
5060;SDS011;2549;52.128;21.068;2022-12-18T07:42:53;26.60;;;11.52;;
5060;SDS011;2549;52.128;21.068;2022-12-18T07:45:20;26.33;;;11.38;;
5060;SDS011;2549;52.128;21.068;2022-12-18T07:47:47;31.90;;;12.38;;
5060;SDS011;2549;52.128;21.068;2022-12-18T07:50:14;28.70;;;10.73;;
5060;SDS011;2549;52.128;21.068;2022-12-18T07:52:41;31.80;;;11.60;;
5060;SDS011;2549;52.128;21.068;2022-12-18T07:55:08;33.83;;;12.68;;
5060;SDS011;2549;52.128;21.068;2022-12-18T07:57:35;28.25;;;11.85;;
5060;SDS011;2549;52.128;21.068;2022-12-18T08:00:22;22.02;;;10.20;;
5060;SDS011;2549;52.128;21.068;2022-12-18T08:02:49;35.90;;;11.77;;
5060;SDS011;2549;52.128;21.068;2022-12-18T08:05:16;35.10;;;12.95;;
5060;SDS011;2549;52.128;21.068;2022-12-18T08:07:43;30.70;;;12.68;;
5060;SDS011;2549;52.128;21.068;2022-12-18T08:10:09;31.17;;;12.85;;
5060;SDS011;2549;52.128;21.068;2022-12-18T08:12:36;27.63;;;12.43;;
5060;SDS011;2549;52.128;21.068;2022-12-18T08:15:03;27.98;;;11.95;;
5060;SDS011;2549;52.128;21.068;2022-12-18T08:17:31;25.50;;;12.07;;
5060;SDS011;2549;52.128;21.068;2022-12-18T08:19:58;30.77;;;11.07;;
5060;SDS011;2549;52.128;21.068;2022-12-18T08:22:25;28.70;;;12.30;;
5060;SDS011;2549;52.128;21.068;2022-12-18T08:24:52;27.80;;;11.40;;
5060;SDS011;2549;52.128;21.068;2022-12-18T08:27:18;28.60;;;11.93;;
5060;SDS011;2549;52.128;21.068;2022-12-18T08:29:55;22.70;;;9.93;;
5060;SDS011;2549;52.128;21.068;2022-12-18T08:32:23;25.13;;;11.52;;
5060;SDS011;2549;52.128;21.068;2022-12-18T08:34:50;37.55;;;11.85;;
5060;SDS011;2549;52.128;21.068;2022-12-18T08:37:17;27.55;;;12.15;;
5060;SDS011;2549;52.128;21.068;2022-12-18T08:39:44;25.40;;;10.88;;
5060;SDS011;2549;52.128;21.068;2022-12-18T08:42:11;29.75;;;11.32;;
5060;SDS011;2549;52.128;21.068;2022-12-18T08:44:56;33.17;;;12.95;;
5060;SDS011;2549;52.128;21.068;2022-12-18T08:47:23;29.83;;;11.18;;
5060;SDS011;2549;52.128;21.068;2022-12-18T08:49:50;28.70;;;9.65;;
5060;SDS011;2549;52.128;21.068;2022-12-18T08:52:17;32.25;;;13.30;;
5060;SDS011;2549;52.128;21.068;2022-12-18T08:54:46;28.63;;;11.90;;
5060;SDS011;2549;52.128;21.068;2022-12-18T08:57:13;27.25;;;11.10;;
5060;SDS011;2549;52.128;21.068;2022-12-18T08:59:40;24.30;;;11.07;;
5060;SDS011;2549;52.128;21.068;2022-12-18T09:02:09;25.48;;;11.65;;
5060;SDS011;2549;52.128;21.068;2022-12-18T09:04:37;25.92;;;11.90;;
5060;SDS011;2549;52.128;21.068;2022-12-18T09:07:06;30.10;;;12.80;;
5060;SDS011;2549;52.128;21.068;2022-12-18T09:09:33;33.25;;;12.75;;
5060;SDS011;2549;52.128;21.068;2022-12-18T09:11:59;22.45;;;10.73;;
5060;SDS011;2549;52.128;21.068;2022-12-18T09:14:26;29.75;;;11.98;;
5060;SDS011;2549;52.128;21.068;2022-12-18T09:16:53;38.53;;;11.15;;
5060;SDS011;2549;52.128;21.068;2022-12-18T09:19:20;30.67;;;11.35;;
5060;SDS011;2549;52.128;21.068;2022-12-18T09:21:47;30.42;;;12.70;;
5060;SDS011;2549;52.128;21.068;2022-12-18T09:24:14;30.65;;;13.55;;
5060;SDS011;2549;52.128;21.068;2022-12-18T09:26:42;27.42;;;12.20;;
5060;SDS011;2549;52.128;21.068;2022-12-18T09:29:12;29.75;;;13.40;;
5060;SDS011;2549;52.128;21.068;2022-12-18T09:31:41;38.00;;;13.77;;
5060;SDS011;2549;52.128;21.068;2022-12-18T09:34:08;32.55;;;13.90;;
5060;SDS011;2549;52.128;21.068;2022-12-18T09:36:35;26.90;;;11.77;;
5060;SDS011;2549;52.128;21.068;2022-12-18T09:39:02;32.20;;;13.75;;
5060;SDS011;2549;52.128;21.068;2022-12-18T09:46:51;29.73;;;13.00;;
5060;SDS011;2549;52.128;21.068;2022-12-18T09:49:25;27.38;;;13.32;;
5060;SDS011;2549;52.128;21.068;2022-12-18T09:51:57;39.92;;;15.38;;
5060;SDS011;2549;52.128;21.068;2022-12-18T09:54:29;32.15;;;13.77;;
5060;SDS011;2549;52.128;21.068;2022-12-18T09:57:02;31.67;;;14.88;;
5060;SDS011;2549;52.128;21.068;2022-12-18T09:59:30;33.75;;;15.70;;
5060;SDS011;2549;52.128;21.068;2022-12-18T10:02:22;26.10;;;12.68;;
5060;SDS011;2549;52.128;21.068;2022-12-18T10:05:11;35.20;;;14.73;;
5060;SDS011;2549;52.128;21.068;2022-12-18T10:07:47;37.17;;;15.20;;
5060;SDS011;2549;52.128;21.068;2022-12-18T10:13:03;41.28;;;15.27;;
5060;SDS011;2549;52.128;21.068;2022-12-18T10:21:05;37.08;;;14.70;;
5060;SDS011;2549;52.128;21.068;2022-12-18T10:26:26;36.88;;;15.05;;
5060;SDS011;2549;52.128;21.068;2022-12-18T10:28:53;35.63;;;14.63;;
5060;SDS011;2549;52.128;21.068;2022-12-18T10:31:23;36.25;;;15.18;;
5060;SDS011;2549;52.128;21.068;2022-12-18T10:33:53;40.90;;;15.82;;
5060;SDS011;2549;52.128;21.068;2022-12-18T10:36:22;46.50;;;16.67;;
5060;SDS011;2549;52.128;21.068;2022-12-18T10:38:50;38.80;;;15.27;;
5060;SDS011;2549;52.128;21.068;2022-12-18T10:43:51;36.45;;;15.20;;
5060;SDS011;2549;52.128;21.068;2022-12-18T10:46:43;37.92;;;17.08;;
5060;SDS011;2549;52.128;21.068;2022-12-18T10:49:18;35.25;;;13.85;;
5060;SDS011;2549;52.128;21.068;2022-12-18T10:51:48;32.45;;;14.43;;
5060;SDS011;2549;52.128;21.068;2022-12-18T10:54:16;39.10;;;16.52;;
5060;SDS011;2549;52.128;21.068;2022-12-18T10:56:50;30.42;;;14.32;;
5060;SDS011;2549;52.128;21.068;2022-12-18T10:59:17;43.38;;;17.20;;
5060;SDS011;2549;52.128;21.068;2022-12-18T11:01:54;33.35;;;13.50;;
5060;SDS011;2549;52.128;21.068;2022-12-18T11:04:32;36.60;;;12.50;;
5060;SDS011;2549;52.128;21.068;2022-12-18T11:07:05;36.60;;;13.90;;
5060;SDS011;2549;52.128;21.068;2022-12-18T11:09:37;33.80;;;13.80;;
5060;SDS011;2549;52.128;21.068;2022-12-18T11:12:15;46.65;;;16.60;;
5060;SDS011;2549;52.128;21.068;2022-12-18T11:14:48;38.88;;;14.73;;
5060;SDS011;2549;52.128;21.068;2022-12-18T11:20:41;26.90;;;13.85;;
5060;SDS011;2549;52.128;21.068;2022-12-18T11:23:00;36.63;;;14.52;;
5060;SDS011;2549;52.128;21.068;2022-12-18T11:25:30;40.78;;;14.43;;
5060;SDS011;2549;52.128;21.068;2022-12-18T11:30:33;44.45;;;16.25;;
5060;SDS011;2549;52.128;21.068;2022-12-18T11:33:04;32.28;;;14.63;;
5060;SDS011;2549;52.128;21.068;2022-12-18T11:35:49;44.72;;;15.35;;
5060;SDS011;2549;52.128;21.068;2022-12-18T11:38:26;30.80;;;15.32;;
5060;SDS011;2549;52.128;21.068;2022-12-18T11:43:38;32.42;;;13.90;;
5060;SDS011;2549;52.128;21.068;2022-12-18T11:46:13;39.75;;;15.25;;
5060;SDS011;2549;52.128;21.068;2022-12-18T11:51:17;38.63;;;13.68;;
5060;SDS011;2549;52.128;21.068;2022-12-18T11:53:52;37.22;;;15.68;;
5060;SDS011;2549;52.128;21.068;2022-12-18T11:56:43;38.60;;;14.38;;
5060;SDS011;2549;52.128;21.068;2022-12-18T12:16:37;37.00;;;14.90;;
5060;SDS011;2549;52.128;21.068;2022-12-18T12:22:00;36.38;;;15.15;;
5060;SDS011;2549;52.128;21.068;2022-12-18T12:24:37;29.90;;;14.20;;
5060;SDS011;2549;52.128;21.068;2022-12-18T12:37:56;37.63;;;15.70;;
5060;SDS011;2549;52.128;21.068;2022-12-18T12:40:53;36.55;;;15.43;;
5060;SDS011;2549;52.128;21.068;2022-12-18T12:46:07;28.23;;;13.55;;
5060;SDS011;2549;52.128;21.068;2022-12-18T12:48:49;28.60;;;14.20;;
5060;SDS011;2549;52.128;21.068;2022-12-18T12:51:34;30.90;;;14.02;;
5060;SDS011;2549;52.128;21.068;2022-12-18T12:54:12;38.05;;;14.18;;
5060;SDS011;2549;52.128;21.068;2022-12-18T13:00:04;38.95;;;14.77;;
5060;SDS011;2549;52.128;21.068;2022-12-18T13:08:26;39.78;;;15.43;;
5060;SDS011;2549;52.128;21.068;2022-12-18T13:10:58;32.90;;;13.80;;
5060;SDS011;2549;52.128;21.068;2022-12-18T13:13:48;30.92;;;14.15;;
5060;SDS011;2549;52.128;21.068;2022-12-18T13:16:22;27.83;;;13.38;;
5060;SDS011;2549;52.128;21.068;2022-12-18T13:18:51;33.67;;;14.48;;
5060;SDS011;2549;52.128;21.068;2022-12-18T13:21:27;32.00;;;14.52;;
5060;SDS011;2549;52.128;21.068;2022-12-18T13:23:57;37.95;;;14.63;;
5060;SDS011;2549;52.128;21.068;2022-12-18T13:26:51;31.45;;;14.40;;
5060;SDS011;2549;52.128;21.068;2022-12-18T13:30:01;32.63;;;13.88;;
5060;SDS011;2549;52.128;21.068;2022-12-18T13:32:20;36.28;;;12.80;;
5060;SDS011;2549;52.128;21.068;2022-12-18T13:38:20;41.08;;;13.45;;
5060;SDS011;2549;52.128;21.068;2022-12-18T13:41:01;30.92;;;13.43;;
5060;SDS011;2549;52.128;21.068;2022-12-18T13:43:54;27.38;;;13.75;;
5060;SDS011;2549;52.128;21.068;2022-12-18T13:46:44;35.47;;;14.63;;
5060;SDS011;2549;52.128;21.068;2022-12-18T13:51:43;36.67;;;14.90;;
5060;SDS011;2549;52.128;21.068;2022-12-18T13:57:04;35.60;;;14.40;;
5060;SDS011;2549;52.128;21.068;2022-12-18T14:02:14;32.63;;;13.27;;
5060;SDS011;2549;52.128;21.068;2022-12-18T14:04:46;34.40;;;14.38;;
5060;SDS011;2549;52.128;21.068;2022-12-18T14:09:57;30.77;;;14.73;;
5060;SDS011;2549;52.128;21.068;2022-12-18T14:12:47;28.80;;;12.93;;
5060;SDS011;2549;52.128;21.068;2022-12-18T14:20:35;32.88;;;13.23;;
5060;SDS011;2549;52.128;21.068;2022-12-18T14:23:24;42.45;;;14.95;;
5060;SDS011;2549;52.128;21.068;2022-12-18T14:25:57;33.65;;;13.82;;
5060;SDS011;2549;52.128;21.068;2022-12-18T14:28:31;30.20;;;13.57;;
5060;SDS011;2549;52.128;21.068;2022-12-18T14:30:58;29.88;;;13.43;;
5060;SDS011;2549;52.128;21.068;2022-12-18T14:33:26;31.60;;;13.32;;
5060;SDS011;2549;52.128;21.068;2022-12-18T14:36:01;34.42;;;14.80;;
5060;SDS011;2549;52.128;21.068;2022-12-18T14:38:31;30.35;;;14.40;;
5060;SDS011;2549;52.128;21.068;2022-12-18T14:41:01;34.63;;;14.43;;
5060;SDS011;2549;52.128;21.068;2022-12-18T14:43:32;27.50;;;13.68;;
5060;SDS011;2549;52.128;21.068;2022-12-18T14:46:01;30.38;;;13.50;;
5060;SDS011;2549;52.128;21.068;2022-12-18T14:53:33;29.65;;;13.20;;
5060;SDS011;2549;52.128;21.068;2022-12-18T14:56:02;30.95;;;14.43;;
5060;SDS011;2549;52.128;21.068;2022-12-18T14:58:36;29.48;;;12.57;;
5060;SDS011;2549;52.128;21.068;2022-12-18T15:01:03;32.88;;;13.73;;
5060;SDS011;2549;52.128;21.068;2022-12-18T15:03:30;39.65;;;15.00;;
5060;SDS011;2549;52.128;21.068;2022-12-18T15:06:14;36.45;;;14.85;;
5060;SDS011;2549;52.128;21.068;2022-12-18T15:08:42;33.40;;;13.88;;
5060;SDS011;2549;52.128;21.068;2022-12-18T15:11:25;34.33;;;14.75;;
5060;SDS011;2549;52.128;21.068;2022-12-18T15:17:18;34.90;;;13.23;;
5060;SDS011;2549;52.128;21.068;2022-12-18T15:19:50;39.17;;;13.32;;
5060;SDS011;2549;52.128;21.068;2022-12-18T15:22:29;30.92;;;13.40;;
5060;SDS011;2549;52.128;21.068;2022-12-18T15:24:59;30.88;;;13.05;;
5060;SDS011;2549;52.128;21.068;2022-12-18T15:27:31;28.70;;;13.73;;
5060;SDS011;2549;52.128;21.068;2022-12-18T15:32:36;28.55;;;11.23;;
5060;SDS011;2549;52.128;21.068;2022-12-18T15:37:37;32.83;;;12.55;;
5060;SDS011;2549;52.128;21.068;2022-12-18T15:40:05;37.53;;;13.60;;
5060;SDS011;2549;52.128;21.068;2022-12-18T15:42:45;29.08;;;11.90;;
5060;SDS011;2549;52.128;21.068;2022-12-18T15:45:31;31.05;;;13.50;;
5060;SDS011;2549;52.128;21.068;2022-12-18T15:47:58;33.80;;;12.13;;
5060;SDS011;2549;52.128;21.068;2022-12-18T15:50:25;32.15;;;13.25;;
5060;SDS011;2549;52.128;21.068;2022-12-18T15:52:53;32.15;;;12.77;;
5060;SDS011;2549;52.128;21.068;2022-12-18T15:55:23;34.22;;;13.50;;
5060;SDS011;2549;52.128;21.068;2022-12-18T15:58:09;28.10;;;12.50;;
5060;SDS011;2549;52.128;21.068;2022-12-18T16:00:39;27.02;;;11.50;;
5060;SDS011;2549;52.128;21.068;2022-12-18T16:03:06;30.15;;;12.45;;
5060;SDS011;2549;52.128;21.068;2022-12-18T16:05:35;28.30;;;12.20;;
5060;SDS011;2549;52.128;21.068;2022-12-18T16:08:02;27.00;;;10.52;;
5060;SDS011;2549;52.128;21.068;2022-12-18T16:10:29;27.65;;;12.23;;
5060;SDS011;2549;52.128;21.068;2022-12-18T16:12:56;23.00;;;10.68;;
5060;SDS011;2549;52.128;21.068;2022-12-18T16:15:23;30.60;;;12.30;;
5060;SDS011;2549;52.128;21.068;2022-12-18T16:17:50;29.48;;;12.85;;
5060;SDS011;2549;52.128;21.068;2022-12-18T16:20:21;32.05;;;13.88;;
5060;SDS011;2549;52.128;21.068;2022-12-18T16:22:48;28.48;;;13.60;;
5060;SDS011;2549;52.128;21.068;2022-12-18T16:25:19;28.42;;;14.07;;
5060;SDS011;2549;52.128;21.068;2022-12-18T16:27:48;33.08;;;12.85;;
5060;SDS011;2549;52.128;21.068;2022-12-18T16:30:18;34.08;;;14.48;;
5060;SDS011;2549;52.128;21.068;2022-12-18T16:32:48;22.33;;;10.52;;
5060;SDS011;2549;52.128;21.068;2022-12-18T16:35:15;25.55;;;12.20;;
5060;SDS011;2549;52.128;21.068;2022-12-18T16:37:42;27.48;;;12.40;;
5060;SDS011;2549;52.128;21.068;2022-12-18T16:40:11;34.47;;;13.02;;
5060;SDS011;2549;52.128;21.068;2022-12-18T16:42:40;30.45;;;13.93;;
5060;SDS011;2549;52.128;21.068;2022-12-18T16:45:09;28.92;;;12.13;;
5060;SDS011;2549;52.128;21.068;2022-12-18T16:47:41;31.20;;;12.57;;
5060;SDS011;2549;52.128;21.068;2022-12-18T16:50:08;25.60;;;11.65;;
5060;SDS011;2549;52.128;21.068;2022-12-18T16:52:35;26.85;;;12.60;;
5060;SDS011;2549;52.128;21.068;2022-12-18T16:55:02;23.17;;;11.82;;
5060;SDS011;2549;52.128;21.068;2022-12-18T16:57:30;24.25;;;11.50;;
5060;SDS011;2549;52.128;21.068;2022-12-18T16:59:56;24.55;;;10.70;;
5060;SDS011;2549;52.128;21.068;2022-12-18T17:02:30;27.25;;;12.02;;
5060;SDS011;2549;52.128;21.068;2022-12-18T17:04:57;24.83;;;10.82;;
5060;SDS011;2549;52.128;21.068;2022-12-18T17:07:24;28.38;;;11.32;;
5060;SDS011;2549;52.128;21.068;2022-12-18T17:09:52;26.65;;;12.18;;
5060;SDS011;2549;52.128;21.068;2022-12-18T17:12:19;28.05;;;13.40;;
5060;SDS011;2549;52.128;21.068;2022-12-18T17:14:47;27.85;;;12.45;;
5060;SDS011;2549;52.128;21.068;2022-12-18T17:17:14;30.63;;;12.40;;
5060;SDS011;2549;52.128;21.068;2022-12-18T17:19:49;28.33;;;12.15;;
5060;SDS011;2549;52.128;21.068;2022-12-18T17:22:17;29.17;;;12.02;;